Time;durP1;ratioP1;P1;durP2;ratioP2;P2;SDS_P1;SDS_P2;PMS_P1;PMS_P2;Temp;Humidity;BMP_temperature;BMP_pressure;BME280_temperature;BME280_humidity;BME280_pressure;Samples;Min_cycle;Max_cycle;Signal;HPM_P1;HPM_P2
2023/06/05 00:01:15;;;;;;;6.03;4.45;;;11.40;99.90;;;;;;5075717;28;20048;-53
2023/06/05 00:03:43;;;;;;;6.93;4.55;;;11.40;99.90;;;;;;5074120;28;20049;-54
2023/06/05 00:06:09;;;;;;;8.63;4.57;;;11.40;99.90;;;;;;5064440;28;20045;-54
2023/06/05 00:08:35;;;;;;;7.70;4.65;;;11.40;99.90;;;;;;5063037;28;20045;-54
2023/06/05 00:11:01;;;;;;;5.75;4.05;;;11.30;99.90;;;;;;5062803;28;20064;-55
2023/06/05 00:13:26;;;;;;;7.43;4.38;;;11.30;99.90;;;;;;5063804;28;20091;-54
2023/06/05 00:15:53;;;;;;;6.55;4.55;;;11.40;99.90;;;;;;5063028;28;20040;-55
2023/06/05 00:18:19;;;;;;;5.15;4.10;;;11.30;99.90;;;;;;5063113;28;20060;-54
2023/06/05 00:20:45;;;;;;;9.40;4.90;;;11.30;99.90;;;;;;5060276;28;20045;-54
2023/06/05 00:23:13;;;;;;;6.72;4.20;;;11.30;99.90;;;;;;5079083;28;20051;-55
2023/06/05 00:25:39;;;;;;;7.15;4.35;;;11.20;99.90;;;;;;5081262;28;20072;-54
2023/06/05 00:28:05;;;;;;;7.32;4.50;;;11.20;99.90;;;;;;5072712;28;20045;-54
2023/06/05 00:30:30;;;;;;;9.13;4.95;;;11.10;99.90;;;;;;5063899;28;20060;-53
2023/06/05 00:32:57;;;;;;;5.28;4.60;;;11.00;99.90;;;;;;5066783;28;20414;-54
2023/06/05 00:35:22;;;;;;;7.57;4.63;;;11.00;99.90;;;;;;5069053;28;20044;-54
2023/06/05 00:37:48;;;;;;;7.85;4.65;;;10.90;99.90;;;;;;5067710;28;20045;-54
2023/06/05 00:40:14;;;;;;;9.43;5.18;;;10.90;99.90;;;;;;5083385;28;20072;-54
2023/06/05 00:42:40;;;;;;;6.55;4.95;;;11.00;99.90;;;;;;5082262;28;20045;-55
2023/06/05 00:45:06;;;;;;;6.85;4.65;;;11.00;99.90;;;;;;5083026;28;20036;-54
2023/06/05 00:47:33;;;;;;;7.05;5.10;;;11.00;99.90;;;;;;5075662;28;20385;-54
2023/06/05 00:50:00;;;;;;;7.80;4.43;;;11.00;99.90;;;;;;5079442;28;20066;-54
2023/06/05 00:52:27;;;;;;;7.25;4.88;;;11.00;99.90;;;;;;5081993;28;20055;-55
2023/06/05 00:54:53;;;;;;;5.68;4.70;;;11.00;99.90;;;;;;5082190;28;20041;-54
2023/06/05 00:57:19;;;;;;;6.90;4.40;;;11.00;99.90;;;;;;5076621;28;20120;-54
2023/06/05 00:59:45;;;;;;;7.30;4.68;;;11.00;99.90;;;;;;5062427;28;20049;-54
2023/06/05 01:02:16;;;;;;;6.72;4.63;;;11.00;99.90;;;;;;5066488;28;20048;-54
2023/06/05 01:04:43;;;;;;;7.00;4.15;;;10.90;99.90;;;;;;5082983;28;20040;-54
2023/06/05 01:07:10;;;;;;;9.93;4.93;;;10.90;99.90;;;;;;5077821;28;20064;-54
2023/06/05 01:09:37;;;;;;;6.15;4.60;;;10.90;99.90;;;;;;5071169;28;20040;-54
2023/06/05 01:12:15;;;;;;;9.32;5.15;;;10.90;99.90;;;;;;5068210;28;20056;-54
2023/06/05 01:14:45;;;;;;;7.22;4.43;;;10.90;99.90;;;;;;5065783;28;20143;-54
2023/06/05 01:17:13;;;;;;;10.40;5.40;;;10.80;99.90;;;;;;5068794;28;20036;-54
2023/06/05 01:19:39;;;;;;;6.38;4.80;;;10.80;99.90;;;;;;5072717;28;20621;-54
2023/06/05 01:22:05;;;;;;;8.70;4.93;;;10.70;99.90;;;;;;5073435;28;20394;-54
2023/06/05 01:24:32;;;;;;;6.40;5.07;;;10.70;99.90;;;;;;5059687;28;20048;-54
2023/06/05 01:27:30;;;;;;;7.22;4.65;;;10.60;99.90;;;;;;5055068;28;20071;-53
2023/06/05 01:30:14;;;;;;;6.90;4.95;;;10.50;99.90;;;;;;5047256;28;20534;-54
2023/06/05 01:33:02;;;;;;;9.13;5.03;;;10.50;99.90;;;;;;5048228;28;21638;-54
2023/06/05 01:35:32;;;;;;;7.63;5.22;;;10.40;99.90;;;;;;5047208;28;20123;-54
2023/06/05 01:38:02;;;;;;;7.75;5.22;;;10.40;99.90;;;;;;5047974;28;20033;-54
2023/06/05 01:40:31;;;;;;;7.13;5.05;;;10.40;99.90;;;;;;5047064;28;20032;-54
2023/06/05 01:42:59;;;;;;;7.57;5.00;;;10.50;99.90;;;;;;5056776;28;20070;-54
2023/06/05 01:45:25;;;;;;;6.82;5.07;;;10.40;99.90;;;;;;5050653;28;20046;-54
2023/06/05 01:47:51;;;;;;;8.82;5.38;;;10.40;99.90;;;;;;5064215;28;20104;-54
2023/06/05 01:50:18;;;;;;;7.75;4.75;;;10.40;99.90;;;;;;5081310;28;20075;-55
2023/06/05 01:52:46;;;;;;;10.07;5.78;;;10.30;99.90;;;;;;5075718;28;20055;-54
2023/06/05 01:55:26;;;;;;;9.75;5.60;;;10.30;99.90;;;;;;5061402;28;20077;-55
2023/06/05 01:57:52;;;;;;;7.70;5.10;;;10.20;99.90;;;;;;5061936;28;20045;-55
2023/06/05 02:00:18;;;;;;;7.35;5.20;;;10.20;99.90;;;;;;5062563;28;20068;-53
2023/06/05 02:02:47;;;;;;;10.20;5.63;;;10.20;99.90;;;;;;5059294;28;20136;-54
2023/06/05 02:05:14;;;;;;;8.73;5.18;;;10.20;99.90;;;;;;5061716;28;20055;-54
2023/06/05 02:07:47;;;;;;;8.70;5.60;;;10.20;99.90;;;;;;5060692;28;20120;-54
2023/06/05 02:10:13;;;;;;;7.38;5.38;;;10.10;99.90;;;;;;5061782;28;20052;-54
2023/06/05 02:12:41;;;;;;;6.38;5.28;;;10.10;99.90;;;;;;5066617;28;20062;-55
2023/06/05 02:15:09;;;;;;;9.18;5.78;;;10.10;99.90;;;;;;5074034;28;20086;-54
2023/06/05 02:17:34;;;;;;;8.48;5.40;;;10.10;99.90;;;;;;5080441;28;20386;-54
2023/06/05 02:20:01;;;;;;;9.65;5.63;;;10.10;99.90;;;;;;5080621;28;20055;-54
2023/06/05 02:22:27;;;;;;;8.50;5.40;;;10.00;99.90;;;;;;5077047;28;20094;-54
2023/06/05 02:24:53;;;;;;;7.70;5.90;;;10.00;99.90;;;;;;5080684;28;20048;-55
2023/06/05 02:27:19;;;;;;;10.32;5.07;;;10.00;99.90;;;;;;5072354;28;20084;-54
2023/06/05 02:29:44;;;;;;;8.15;5.10;;;10.00;99.90;;;;;;5067907;28;20077;-54
2023/06/05 02:32:11;;;;;;;10.32;5.35;;;9.90;99.90;;;;;;5072863;28;20044;-54
2023/06/05 02:34:37;;;;;;;8.07;5.70;;;9.90;99.90;;;;;;5072246;28;20406;-54
2023/06/05 02:37:03;;;;;;;7.80;5.57;;;10.00;99.90;;;;;;5064992;28;20052;-54
2023/06/05 02:39:31;;;;;;;7.15;5.20;;;10.70;99.90;;;;;;5070797;28;20344;-55
2023/06/05 02:41:57;;;;;;;7.05;5.45;;;9.90;99.90;;;;;;5067066;28;20052;-54
2023/06/05 02:44:23;;;;;;;8.32;5.75;;;9.90;99.90;;;;;;5065324;28;20076;-54
2023/06/05 02:46:48;;;;;;;8.65;5.70;;;9.90;99.90;;;;;;5079649;28;20048;-54
2023/06/05 02:49:14;;;;;;;8.05;6.00;;;9.90;99.90;;;;;;5061348;28;20080;-55
2023/06/05 02:51:40;;;;;;;8.00;5.38;;;9.80;99.90;;;;;;5069252;28;20032;-54
2023/06/05 02:54:06;;;;;;;7.95;5.65;;;9.80;99.90;;;;;;5062463;28;20041;-54
2023/06/05 02:56:32;;;;;;;8.38;5.55;;;9.80;99.90;;;;;;5061060;28;20092;-54
2023/06/05 02:58:58;;;;;;;12.60;5.90;;;9.70;99.90;;;;;;5060637;28;20048;-54
2023/06/05 03:01:25;;;;;;;9.00;5.63;;;9.70;99.90;;;;;;5064779;28;20442;-55
2023/06/05 03:03:52;;;;;;;9.95;5.47;;;9.60;99.90;;;;;;5064201;28;20057;-54
2023/06/05 03:06:18;;;;;;;8.82;6.30;;;9.50;99.90;;;;;;5059901;28;20053;-55
2023/06/05 03:08:44;;;;;;;7.95;5.75;;;9.40;99.90;;;;;;5062611;28;20071;-55
2023/06/05 03:11:10;;;;;;;10.32;6.03;;;9.40;99.90;;;;;;5062444;28;20048;-53
2023/06/05 03:13:36;;;;;;;9.90;5.95;;;9.30;99.90;;;;;;5067482;28;20515;-54
2023/06/05 03:16:02;;;;;;;8.85;5.80;;;9.30;99.90;;;;;;5059524;28;20133;-55
2023/06/05 03:18:28;;;;;;;8.75;5.85;;;9.30;99.90;;;;;;5070146;28;20064;-54
2023/06/05 03:20:57;;;;;;;9.63;6.18;;;9.20;99.90;;;;;;5067733;28;20044;-54
2023/06/05 03:23:23;;;;;;;12.32;6.07;;;9.20;99.90;;;;;;5074502;28;20048;-54
2023/06/05 03:25:50;;;;;;;10.18;5.90;;;9.10;99.90;;;;;;5074347;28;20045;-54
2023/06/05 03:28:16;;;;;;;8.90;5.80;;;9.20;99.90;;;;;;5079149;28;20044;-54
2023/06/05 03:30:41;;;;;;;10.00;5.53;;;9.20;99.90;;;;;;5073294;28;20036;-55
2023/06/05 03:33:07;;;;;;;9.35;6.00;;;9.30;99.90;;;;;;5074745;28;20091;-54
2023/06/05 03:35:34;;;;;;;8.13;5.70;;;9.30;99.90;;;;;;5078186;28;20075;-55
2023/06/05 03:38:01;;;;;;;9.75;5.55;;;9.30;99.90;;;;;;5076291;28;20052;-54
2023/06/05 03:40:27;;;;;;;7.90;5.65;;;9.30;99.90;;;;;;5045454;28;20049;-54
2023/06/05 03:42:53;;;;;;;9.48;6.43;;;9.30;99.90;;;;;;5073371;28;20562;-54
2023/06/05 03:45:19;;;;;;;11.05;6.47;;;9.30;99.90;;;;;;5062992;28;20072;-55
2023/06/05 03:47:48;;;;;;;9.02;6.20;;;9.20;99.90;;;;;;5079208;28;20052;-55
2023/06/05 03:50:15;;;;;;;8.43;6.07;;;9.10;99.90;;;;;;5082442;28;20585;-54
2023/06/05 03:52:41;;;;;;;8.48;6.30;;;9.00;99.90;;;;;;5078599;28;20476;-54
2023/06/05 03:55:08;;;;;;;10.38;7.28;;;9.00;99.90;;;;;;5062448;28;20077;-54
2023/06/05 03:57:34;;;;;;;9.55;6.63;;;9.00;99.90;;;;;;5063456;28;20124;-54
2023/06/05 04:00:00;;;;;;;12.95;7.00;;;9.10;99.90;;;;;;5075328;28;20048;-54
2023/06/05 04:02:26;;;;;;;12.65;6.50;;;9.00;99.90;;;;;;5080908;28;20082;-54
2023/06/05 04:04:52;;;;;;;10.07;5.95;;;9.20;99.90;;;;;;5064124;28;20068;-54
2023/06/05 04:07:18;;;;;;;10.38;6.95;;;9.00;99.90;;;;;;5066975;28;20060;-55
2023/06/05 04:09:43;;;;;;;10.75;6.65;;;8.90;99.90;;;;;;5066049;28;20049;-57
2023/06/05 04:12:14;;;;;;;10.18;6.72;;;9.00;99.90;;;;;;5070950;28;20105;-54
2023/06/05 04:14:40;;;;;;;9.93;6.38;;;9.10;99.90;;;;;;5066912;28;20636;-54
2023/06/05 04:17:06;;;;;;;11.43;6.90;;;9.10;99.90;;;;;;5075606;28;20119;-56
2023/06/05 04:19:31;;;;;;;9.52;7.25;;;9.10;99.90;;;;;;5066516;28;20071;-54
2023/06/05 04:21:57;;;;;;;10.63;7.78;;;9.10;99.90;;;;;;5065390;28;20037;-54
2023/06/05 04:24:25;;;;;;;10.65;7.47;;;9.10;99.90;;;;;;5077308;28;20037;-54
2023/06/05 04:26:51;;;;;;;11.73;7.20;;;9.10;99.90;;;;;;5082261;28;20044;-54
2023/06/05 04:29:18;;;;;;;9.80;7.53;;;9.10;99.90;;;;;;5070092;28;20097;-55
2023/06/05 04:31:45;;;;;;;11.80;7.55;;;9.20;99.90;;;;;;5065216;28;20045;-54
2023/06/05 04:34:12;;;;;;;10.32;7.15;;;9.20;99.90;;;;;;5076012;28;20044;-54
2023/06/05 04:36:38;;;;;;;10.52;7.15;;;9.20;99.90;;;;;;5082486;28;20060;-55
2023/06/05 04:39:06;;;;;;;12.18;7.13;;;9.20;99.90;;;;;;5073760;28;20048;-54
2023/06/05 04:41:32;;;;;;;11.20;7.05;;;9.20;99.90;;;;;;5065694;28;20123;-54
2023/06/05 04:43:59;;;;;;;11.90;8.13;;;9.30;99.90;;;;;;5062041;28;20036;-54
2023/06/05 04:46:26;;;;;;;11.50;7.43;;;9.30;99.90;;;;;;5079984;28;20043;-55
2023/06/05 04:48:55;;;;;;;12.23;7.22;;;9.30;99.90;;;;;;5065147;28;20044;-54
2023/06/05 04:51:22;;;;;;;10.63;7.53;;;9.30;99.90;;;;;;5069072;28;20041;-54
2023/06/05 04:53:52;;;;;;;11.95;7.40;;;9.30;99.90;;;;;;5059922;28;20060;-55
2023/06/05 04:56:21;;;;;;;10.02;7.00;;;9.40;99.90;;;;;;5061867;28;20064;-55
2023/06/05 04:58:47;;;;;;;10.38;7.13;;;9.50;99.90;;;;;;5074256;28;20037;-54
2023/06/05 05:01:13;;;;;;;13.70;7.55;;;9.50;99.90;;;;;;5061917;28;20064;-55
2023/06/05 05:03:42;;;;;;;11.35;7.78;;;9.50;99.90;;;;;;5070385;28;20049;-54
2023/06/05 05:06:09;;;;;;;12.73;7.75;;;9.60;99.90;;;;;;5062182;28;20056;-55
2023/06/05 05:08:36;;;;;;;12.88;8.48;;;9.60;99.90;;;;;;5063650;28;20033;-53
2023/06/05 05:11:02;;;;;;;13.48;7.70;;;9.70;99.90;;;;;;5074902;28;20051;-55
2023/06/05 05:13:28;;;;;;;12.27;8.57;;;9.80;99.90;;;;;;5080790;28;20080;-55
2023/06/05 05:15:54;;;;;;;12.57;8.10;;;9.90;99.90;;;;;;5081236;28;20045;-55
2023/06/05 05:18:20;;;;;;;12.68;8.00;;;9.90;99.90;;;;;;5077202;28;20045;-54
2023/06/05 05:20:46;;;;;;;13.43;8.25;;;10.00;99.90;;;;;;5070808;28;20049;-55
2023/06/05 05:23:11;;;;;;;11.15;7.60;;;10.10;99.90;;;;;;5072315;28;20066;-54
2023/06/05 05:25:40;;;;;;;10.50;7.28;;;10.20;99.90;;;;;;5076423;28;20037;-54
2023/06/05 05:28:06;;;;;;;10.65;7.93;;;10.20;99.90;;;;;;5065436;28;20079;-55
2023/06/05 05:30:32;;;;;;;11.20;7.20;;;10.30;99.90;;;;;;5060510;28;20041;-54
2023/06/05 05:32:58;;;;;;;11.43;7.20;;;10.40;99.90;;;;;;5060811;28;20067;-54
2023/06/05 05:35:24;;;;;;;10.73;7.20;;;10.50;99.90;;;;;;5062450;28;20049;-54
2023/06/05 05:37:49;;;;;;;12.80;7.78;;;10.50;99.90;;;;;;5067275;28;20051;-55
2023/06/05 05:40:15;;;;;;;10.43;7.20;;;10.70;99.90;;;;;;5065754;28;20044;-54
2023/06/05 05:42:41;;;;;;;12.27;7.35;;;10.70;99.90;;;;;;5059969;28;20036;-55
2023/06/05 05:45:08;;;;;;;11.40;7.90;;;10.80;99.90;;;;;;5064612;28;20166;-54
2023/06/05 05:47:34;;;;;;;10.23;7.65;;;10.90;99.90;;;;;;5067598;28;20040;-54
2023/06/05 05:49:59;;;;;;;9.82;7.47;;;11.00;99.90;;;;;;5080373;28;20056;-55
2023/06/05 05:52:25;;;;;;;11.82;7.15;;;11.10;99.90;;;;;;5078264;28;20481;-54
2023/06/05 05:54:51;;;;;;;12.30;7.60;;;11.10;99.90;;;;;;5075746;28;20033;-54
2023/06/05 05:57:18;;;;;;;12.02;7.22;;;11.20;99.90;;;;;;5064946;28;20052;-55
2023/06/05 05:59:44;;;;;;;9.70;6.50;;;11.30;99.90;;;;;;5062075;28;20075;-54
2023/06/05 06:02:13;;;;;;;9.23;6.72;;;11.30;99.90;;;;;;5067049;28;21161;-54
2023/06/05 06:04:39;;;;;;;10.93;7.38;;;11.40;99.90;;;;;;5076921;28;20037;-55
2023/06/05 06:07:05;;;;;;;9.57;6.97;;;11.50;99.90;;;;;;5073539;28;20128;-55
2023/06/05 06:09:32;;;;;;;9.07;6.50;;;11.60;99.90;;;;;;5069473;28;20049;-57
2023/06/05 06:11:58;;;;;;;8.88;6.93;;;11.70;99.90;;;;;;5060157;28;20107;-55
2023/06/05 06:14:24;;;;;;;9.00;5.68;;;11.70;99.90;;;;;;5060740;28;20041;-54
2023/06/05 06:16:50;;;;;;;8.10;5.40;;;11.80;99.90;;;;;;5079495;28;20052;-55
2023/06/05 06:19:16;;;;;;;8.35;5.68;;;11.80;99.90;;;;;;5080577;28;20072;-55
2023/06/05 06:21:43;;;;;;;7.93;5.72;;;12.00;99.90;;;;;;5074820;28;20110;-55
2023/06/05 06:24:09;;;;;;;8.02;5.47;;;11.40;99.90;;;;;;5076505;28;20036;-55
2023/06/05 06:26:38;;;;;;;8.32;5.75;;;12.10;99.90;;;;;;5077963;28;20080;-54
2023/06/05 06:29:04;;;;;;;5.97;4.95;;;12.20;99.90;;;;;;5080237;28;20037;-54
2023/06/05 06:31:30;;;;;;;8.85;5.00;;;12.50;99.90;;;;;;5066260;28;20041;-55
2023/06/05 06:33:56;;;;;;;7.68;5.03;;;12.50;99.90;;;;;;5073314;28;20068;-54
2023/06/05 06:36:22;;;;;;;8.15;4.80;;;12.70;99.90;;;;;;5070800;28;20500;-56
2023/06/05 06:38:48;;;;;;;7.43;4.90;;;12.70;99.90;;;;;;5072433;28;20044;-55
2023/06/05 06:41:13;;;;;;;9.18;5.00;;;12.80;99.90;;;;;;5079319;28;20044;-55
2023/06/05 06:43:39;;;;;;;7.82;4.95;;;12.90;99.90;;;;;;5079908;28;20055;-54
2023/06/05 06:46:06;;;;;;;8.02;5.25;;;13.10;99.90;;;;;;5066823;28;20041;-54
2023/06/05 06:48:32;;;;;;;7.00;5.22;;;13.10;99.90;;;;;;5062313;28;20048;-55
2023/06/05 06:50:58;;;;;;;10.63;5.72;;;13.20;99.90;;;;;;5059122;28;20033;-55
2023/06/05 06:53:23;;;;;;;8.73;5.57;;;13.40;99.90;;;;;;5055901;28;20044;-54
2023/06/05 06:55:49;;;;;;;8.90;5.03;;;13.40;99.90;;;;;;5064938;28;20037;-55
2023/06/05 06:58:15;;;;;;;7.07;5.13;;;13.50;99.90;;;;;;5065121;28;20443;-54
2023/06/05 07:00:41;;;;;;;7.28;5.50;;;13.60;99.90;;;;;;5057961;28;20044;-55
2023/06/05 07:03:08;;;;;;;6.85;4.97;;;13.70;99.90;;;;;;5064005;28;20091;-55
2023/06/05 07:05:34;;;;;;;9.05;5.53;;;13.90;99.90;;;;;;5062657;28;20037;-55
2023/06/05 07:08:00;;;;;;;5.50;4.38;;;14.00;99.90;;;;;;5073798;28;20094;-54
2023/06/05 07:10:28;;;;;;;6.97;4.80;;;14.10;99.90;;;;;;5074365;28;20056;-54
2023/06/05 07:12:54;;;;;;;6.30;4.25;;;14.30;99.90;;;;;;5068472;28;20040;-55
2023/06/05 07:15:20;;;;;;;5.38;4.40;;;14.50;99.90;;;;;;5068916;28;20048;-55
2023/06/05 07:17:46;;;;;;;6.07;4.07;;;14.60;99.90;;;;;;5058694;28;20111;-52
2023/06/05 07:20:12;;;;;;;7.28;4.15;;;14.80;99.90;;;;;;5063224;28;20481;-56
2023/06/05 07:22:43;;;;;;;6.88;4.40;;;14.90;99.90;;;;;;5065798;28;20052;-55
2023/06/05 07:25:09;;;;;;;7.60;4.40;;;15.10;99.90;;;;;;5058843;28;20132;-55
2023/06/05 07:27:35;;;;;;;5.70;4.40;;;15.20;99.90;;;;;;5061620;28;20033;-54
2023/06/05 07:30:01;;;;;;;9.90;4.20;;;15.40;99.90;;;;;;5067141;28;20063;-55
2023/06/05 07:32:27;;;;;;;8.02;4.45;;;15.60;99.90;;;;;;5065737;28;20044;-55
2023/06/05 07:34:53;;;;;;;7.53;4.18;;;15.90;99.90;;;;;;5060150;28;20122;-55
2023/06/05 07:37:18;;;;;;;6.20;4.47;;;16.00;99.90;;;;;;5067046;28;20041;-55
2023/06/05 07:39:44;;;;;;;6.05;4.47;;;16.20;99.90;;;;;;5065445;28;20044;-55
2023/06/05 07:42:10;;;;;;;5.18;3.90;;;16.30;99.90;;;;;;5062524;28;20060;-56
2023/06/05 07:44:35;;;;;;;5.47;3.97;;;16.50;99.90;;;;;;5065281;28;20045;-54
2023/06/05 07:47:01;;;;;;;6.13;4.25;;;16.60;99.90;;;;;;5056336;28;20045;-55
2023/06/05 07:49:31;;;;;;;5.38;3.70;;;16.60;99.90;;;;;;5067545;28;20098;-55
2023/06/05 07:51:57;;;;;;;5.00;3.97;;;16.80;99.90;;;;;;5064484;28;20040;-56
2023/06/05 07:54:23;;;;;;;6.10;4.35;;;16.90;99.90;;;;;;5056570;28;20071;-55
2023/06/05 07:56:50;;;;;;;6.10;4.30;;;16.90;99.90;;;;;;5068970;28;20040;-55
2023/06/05 07:59:17;;;;;;;7.78;4.10;;;16.90;99.90;;;;;;5060682;28;20226;-54
2023/06/05 08:01:45;;;;;;;5.57;3.90;;;17.00;99.90;;;;;;5059473;28;20489;-55
2023/06/05 08:04:11;;;;;;;7.40;4.22;;;17.20;99.90;;;;;;5069459;28;20508;-55
2023/06/05 08:06:40;;;;;;;6.45;4.15;;;17.20;99.90;;;;;;5068140;28;20047;-55
2023/06/05 08:09:09;;;;;;;5.13;3.78;;;17.20;99.90;;;;;;5073863;28;20131;-54
2023/06/05 08:11:36;;;;;;;6.50;4.07;;;17.40;99.90;;;;;;5071576;28;20418;-55
2023/06/05 08:14:03;;;;;;;6.72;4.10;;;17.40;99.90;;;;;;5073119;28;20041;-55
2023/06/05 08:16:29;;;;;;;5.35;3.50;;;17.60;99.90;;;;;;5075872;28;20172;-55
2023/06/05 08:18:55;;;;;;;3.97;3.45;;;17.70;99.90;;;;;;5074965;28;20048;-55
2023/06/05 08:21:21;;;;;;;6.32;3.80;;;17.80;99.90;;;;;;5068900;28;20045;-55
2023/06/05 08:23:47;;;;;;;5.30;3.50;;;17.90;99.90;;;;;;5063838;28;20131;-55
2023/06/05 08:26:12;;;;;;;5.10;3.70;;;17.90;99.90;;;;;;5066234;28;20068;-53
2023/06/05 08:28:41;;;;;;;4.38;3.20;;;17.90;99.90;;;;;;5074628;28;20040;-55
2023/06/05 08:31:08;;;;;;;4.35;3.15;;;18.00;99.90;;;;;;5067269;28;20072;-55
2023/06/05 08:33:35;;;;;;;4.68;3.08;;;18.30;99.90;;;;;;5065475;28;20595;-55
2023/06/05 08:36:01;;;;;;;5.43;3.10;;;18.50;99.90;;;;;;5059943;28;20037;-56
2023/06/05 08:38:29;;;;;;;5.45;3.05;;;18.80;99.90;;;;;;5067571;28;20052;-55
2023/06/05 08:41:07;;;;;;;4.50;3.38;;;18.80;99.90;;;;;;5073873;28;20390;-55
2023/06/05 08:43:36;;;;;;;3.47;2.72;;;18.90;99.90;;;;;;5071167;28;20055;-56
2023/06/05 08:46:04;;;;;;;5.13;2.95;;;18.90;99.90;;;;;;5068218;28;20055;-55
2023/06/05 08:48:31;;;;;;;3.50;3.10;;;18.90;99.90;;;;;;5063235;28;20055;-56
2023/06/05 08:50:59;;;;;;;5.43;3.10;;;18.90;99.90;;;;;;5071235;28;20055;-55
2023/06/05 08:53:31;;;;;;;4.47;2.42;;;19.10;99.90;;;;;;5065270;28;20052;-55
2023/06/05 08:55:56;;;;;;;4.75;3.03;;;19.20;99.90;;;;;;5062205;28;20037;-55
2023/06/05 08:58:23;;;;;;;4.88;3.63;;;19.20;99.90;;;;;;5071680;28;20069;-57
2023/06/05 09:00:49;;;;;;;6.57;3.50;;;19.30;99.90;;;;;;5068356;28;20731;-55
2023/06/05 09:03:20;;;;;;;4.80;3.38;;;19.20;99.90;;;;;;5069489;28;20067;-55
2023/06/05 09:05:48;;;;;;;5.53;3.05;;;19.20;99.90;;;;;;5066887;28;20043;-55
2023/06/05 09:08:18;;;;;;;3.75;3.17;;;19.20;99.90;;;;;;5068468;28;20049;-56
2023/06/05 09:10:44;;;;;;;4.40;3.40;;;19.40;99.90;;;;;;5060859;28;20052;-54
2023/06/05 09:13:10;;;;;;;7.10;3.30;;;19.40;99.90;;;;;;5069234;28;20049;-56
2023/06/05 09:15:36;;;;;;;4.80;3.15;;;19.50;99.90;;;;;;5063934;28;20166;-55
2023/06/05 09:18:14;;;;;;;6.22;3.10;;;19.50;99.90;;;;;;5063667;28;20068;-55
2023/06/05 09:20:42;;;;;;;3.95;3.20;;;19.60;99.90;;;;;;5070800;28;20036;-55
2023/06/05 09:23:27;;;;;;;4.65;3.03;;;19.80;99.50;;;;;;5078350;28;20033;-55
2023/06/05 09:25:56;;;;;;;4.57;2.97;;;19.80;97.70;;;;;;5076656;28;20056;-55
2023/06/05 09:28:22;;;;;;;5.47;3.20;;;19.80;98.90;;;;;;5074274;28;20062;-56
2023/06/05 09:30:57;;;;;;;4.28;3.28;;;19.80;98.70;;;;;;5077278;28;20033;-55
2023/06/05 09:33:24;;;;;;;3.75;2.70;;;19.80;97.50;;;;;;5069683;28;20037;-55
2023/06/05 09:36:12;;;;;;;8.13;2.78;;;19.70;97.90;;;;;;5071794;28;20078;-55
2023/06/05 09:38:40;;;;;;;4.88;3.25;;;19.80;98.60;;;;;;5072251;28;20051;-56
2023/06/05 09:41:11;;;;;;;4.60;2.80;;;19.80;98.50;;;;;;5073315;28;20048;-55
2023/06/05 09:43:38;;;;;;;6.15;2.90;;;19.80;98.80;;;;;;5066317;28;20041;-56
2023/06/05 09:46:11;;;;;;;4.80;2.80;;;20.00;99.20;;;;;;5072989;28;20101;-55
2023/06/05 09:48:43;;;;;;;6.70;2.90;;;20.20;98.40;;;;;;5067219;28;20041;-55
2023/06/05 09:51:14;;;;;;;5.22;2.90;;;20.30;99.00;;;;;;5061096;28;20041;-55
2023/06/05 09:53:50;;;;;;;4.40;2.90;;;20.50;97.70;;;;;;5067488;28;20096;-55
2023/06/05 09:56:18;;;;;;;5.18;2.35;;;20.50;97.90;;;;;;5067041;28;20045;-55
2023/06/05 09:58:49;;;;;;;4.93;3.10;;;20.50;98.30;;;;;;5076750;28;20056;-55
2023/06/05 10:01:24;;;;;;;3.70;2.58;;;20.50;97.20;;;;;;5069452;28;20041;-55
2023/06/05 10:04:01;;;;;;;7.32;3.30;;;20.40;97.40;;;;;;5074938;28;20048;-55
2023/06/05 10:06:28;;;;;;;4.55;2.80;;;20.40;97.20;;;;;;5072502;28;20060;-55
2023/06/05 10:08:56;;;;;;;3.88;2.95;;;20.40;98.30;;;;;;5076633;28;20293;-55
2023/06/05 10:11:22;;;;;;;5.82;2.95;;;20.40;97.90;;;;;;5068371;28;20053;-55
2023/06/05 10:13:49;;;;;;;4.80;2.80;;;20.50;97.90;;;;;;5070716;28;20057;-55
2023/06/05 10:16:17;;;;;;;3.67;2.70;;;20.40;97.00;;;;;;5063602;28;20059;-55
2023/06/05 10:18:46;;;;;;;4.82;2.78;;;20.40;96.80;;;;;;5072162;28;20507;-56
2023/06/05 10:21:13;;;;;;;8.10;3.15;;;20.40;96.60;;;;;;5071572;28;20077;-55
2023/06/05 10:23:41;;;;;;;3.83;2.67;;;20.30;96.40;;;;;;5066014;28;20033;-55
2023/06/05 10:26:19;;;;;;;5.38;2.97;;;20.30;96.20;;;;;;5069954;28;20068;-54
2023/06/05 10:29:00;;;;;;;4.53;2.63;;;20.10;95.70;;;;;;5059255;28;20041;-55
2023/06/05 10:31:52;;;;;;;4.47;3.15;;;20.00;95.90;;;;;;5067719;28;20726;-55
2023/06/05 10:34:33;;;;;;;5.18;2.70;;;20.00;95.90;;;;;;5059859;28;20120;-55
2023/06/05 10:37:21;;;;;;;4.35;2.80;;;19.90;96.00;;;;;;5064810;28;20131;-54
2023/06/05 10:39:48;;;;;;;3.80;2.90;;;19.80;95.20;;;;;;5060744;28;20119;-56
2023/06/05 10:42:29;;;;;;;4.68;3.10;;;19.70;96.20;;;;;;5074974;28;20052;-54
2023/06/05 10:44:55;;;;;;;7.13;3.38;;;19.80;96.00;;;;;;5074880;28;20044;-55
2023/06/05 10:47:33;;;;;;;5.57;3.17;;;19.80;95.90;;;;;;5062608;28;20485;-54
2023/06/05 10:50:26;;;;;;;6.18;2.85;;;19.80;96.10;;;;;;5073465;28;20051;-55
2023/06/05 10:52:54;;;;;;;5.93;3.00;;;19.80;96.30;;;;;;5075671;28;20056;-55
2023/06/05 10:55:22;;;;;;;3.28;2.22;;;19.90;96.30;;;;;;5067640;28;20052;-55
2023/06/05 10:58:08;;;;;;;4.63;2.60;;;19.90;96.50;;;;;;5063855;28;20044;-55
2023/06/05 11:00:35;;;;;;;3.25;2.50;;;20.00;96.40;;;;;;5071035;28;20036;-55
2023/06/05 11:03:01;;;;;;;3.70;2.60;;;20.00;96.30;;;;;;5070895;28;20064;-56
2023/06/05 11:05:28;;;;;;;6.22;3.00;;;20.10;96.30;;;;;;5077741;28;20067;-55
2023/06/05 11:08:14;;;;;;;4.10;2.95;;;20.20;96.30;;;;;;5077047;28;20558;-55
2023/06/05 11:10:58;;;;;;;;;;;20.30;96.30;;;;;;5062721;28;20045;-55
2023/06/05 11:13:24;;;;;;;5.07;2.90;;;20.30;96.00;;;;;;5073056;28;19927;-55
2023/06/05 11:15:54;;;;;;;3.97;2.92;;;20.50;97.40;;;;;;5069486;28;20040;-56
2023/06/05 11:18:32;;;;;;;4.18;2.60;;;20.50;97.00;;;;;;5070614;28;20037;-55
2023/06/05 11:20:59;;;;;;;4.57;3.03;;;20.60;96.60;;;;;;5063942;28;20049;-54
2023/06/05 11:23:29;;;;;;;3.30;2.65;;;20.40;97.20;;;;;;5074814;28;20098;-55
2023/06/05 11:25:59;;;;;;;6.00;2.67;;;20.80;96.30;;;;;;5069243;28;20059;-55
2023/06/05 11:28:44;;;;;;;8.45;3.15;;;20.90;96.20;;;;;;5058770;28;20527;-55
2023/06/05 11:31:11;;;;;;;5.18;3.30;;;20.80;95.20;;;;;;5064981;28;20109;-55
2023/06/05 11:33:36;;;;;;;5.32;2.65;;;20.80;94.90;;;;;;5076979;28;20047;-56
2023/06/05 11:36:05;;;;;;;5.93;2.70;;;20.80;94.80;;;;;;5068992;28;20041;-56
2023/06/05 11:38:32;;;;;;;4.68;3.00;;;20.80;95.30;;;;;;5073110;28;20080;-55
2023/06/05 11:40:58;;;;;;;5.00;2.83;;;20.90;95.30;;;;;;5081330;28;20052;-55
2023/06/05 11:43:23;;;;;;;6.35;2.35;;;20.90;95.60;;;;;;5079222;28;20032;-55
2023/06/05 11:45:50;;;;;;;4.78;2.70;;;21.10;96.10;;;;;;5080024;28;20126;-55
2023/06/05 11:48:16;;;;;;;3.78;2.47;;;21.20;95.90;;;;;;5081225;28;20064;-55
2023/06/05 11:50:54;;;;;;;7.45;3.03;;;21.40;96.30;;;;;;5079894;28;20040;-55
2023/06/05 11:53:20;;;;;;;3.83;2.35;;;21.60;94.80;;;;;;5075746;28;20967;-55
2023/06/05 11:58:25;;;;;;;4.20;2.40;;;21.60;94.70;;;;;;5079142;28;20048;-55
2023/06/05 12:01:03;;;;;;;4.47;2.88;;;21.70;93.90;;;;;;5066806;28;20041;-55
2023/06/05 12:03:28;;;;;;;5.57;2.40;;;21.60;93.70;;;;;;5073328;28;20061;-55
2023/06/05 12:05:54;;;;;;;3.20;2.22;;;21.70;94.00;;;;;;5080392;28;20054;-54
2023/06/05 12:08:25;;;;;;;5.97;2.33;;;21.80;93.50;;;;;;5072639;28;20060;-55
2023/06/05 12:10:52;;;;;;;6.18;2.28;;;21.80;93.80;;;;;;5069236;28;20079;-55
2023/06/05 12:13:17;;;;;;;3.88;2.40;;;21.90;93.80;;;;;;5079884;28;20591;-55
2023/06/05 12:15:55;;;;;;;4.97;2.40;;;22.00;93.50;;;;;;5065946;28;20033;-55
2023/06/05 12:18:21;;;;;;;5.18;2.30;;;22.10;93.30;;;;;;5072376;28;20544;-55
2023/06/05 12:20:46;;;;;;;3.33;2.45;;;22.00;92.80;;;;;;5068796;28;20100;-55
2023/06/05 12:23:19;;;;;;;4.43;2.78;;;22.10;92.90;;;;;;5072660;28;20116;-55
2023/06/05 12:26:01;;;;;;;2.70;2.05;;;22.20;92.90;;;;;;5074324;28;20513;-56
2023/06/05 12:28:27;;;;;;;3.53;2.38;;;22.40;93.10;;;;;;5072255;28;20116;-55
2023/06/05 12:30:53;;;;;;;5.53;2.60;;;22.70;92.70;;;;;;5071079;28;20508;-57
2023/06/05 12:33:19;;;;;;;3.08;2.25;;;22.90;92.10;;;;;;5064837;28;20088;-55
2023/06/05 12:35:46;;;;;;;4.45;2.50;;;23.10;92.30;;;;;;5060154;28;20037;-55
2023/06/05 12:38:13;;;;;;;3.22;2.45;;;23.30;92.20;;;;;;5067494;28;20120;-55
2023/06/05 12:40:39;;;;;;;6.07;2.55;;;23.60;91.70;;;;;;5076997;28;20246;-55
2023/06/05 12:43:16;;;;;;;6.30;2.50;;;23.80;91.40;;;;;;5062360;28;20080;-55
2023/06/05 12:45:43;;;;;;;4.28;2.58;;;24.00;90.70;;;;;;5069999;28;20075;-56
2023/06/05 12:48:10;;;;;;;4.32;2.40;;;24.10;91.00;;;;;;5053915;28;20522;-56
2023/06/05 12:50:35;;;;;;;4.88;2.63;;;24.40;90.70;;;;;;5070414;28;20044;-55
2023/06/05 12:53:01;;;;;;;5.78;2.40;;;24.60;90.60;;;;;;5061807;28;20425;-56
2023/06/05 12:55:27;;;;;;;5.05;2.70;;;24.90;89.10;;;;;;5067072;28;20131;-55